sensor_id;sensor_type;location;lat;lon;timestamp;temperature;humidity
3954;DHT22;1991;48.682;9.030;2023-05-10T00:01:55;13.50;99.90
3954;DHT22;1991;48.682;9.030;2023-05-10T00:04:20;13.50;99.90
3954;DHT22;1991;48.682;9.030;2023-05-10T00:06:46;13.50;99.90
3954;DHT22;1991;48.682;9.030;2023-05-10T00:09:12;13.50;99.90
3954;DHT22;1991;48.682;9.030;2023-05-10T00:11:37;13.50;99.90
3954;DHT22;1991;48.682;9.030;2023-05-10T00:14:03;13.50;99.90
3954;DHT22;1991;48.682;9.030;2023-05-10T00:16:29;13.50;99.90
3954;DHT22;1991;48.682;9.030;2023-05-10T00:18:54;13.50;99.90
3954;DHT22;1991;48.682;9.030;2023-05-10T00:21:21;13.50;99.90
3954;DHT22;1991;48.682;9.030;2023-05-10T00:23:46;13.50;99.90
3954;DHT22;1991;48.682;9.030;2023-05-10T00:26:12;13.50;99.90
3954;DHT22;1991;48.682;9.030;2023-05-10T00:28:37;13.50;99.90
3954;DHT22;1991;48.682;9.030;2023-05-10T00:31:03;13.40;99.90
3954;DHT22;1991;48.682;9.030;2023-05-10T00:33:29;13.40;99.90
3954;DHT22;1991;48.682;9.030;2023-05-10T00:35:54;13.30;99.90
3954;DHT22;1991;48.682;9.030;2023-05-10T00:38:20;13.20;99.90
3954;DHT22;1991;48.682;9.030;2023-05-10T00:40:46;13.20;99.90
3954;DHT22;1991;48.682;9.030;2023-05-10T00:43:11;13.20;99.90
3954;DHT22;1991;48.682;9.030;2023-05-10T00:45:37;13.20;99.90
3954;DHT22;1991;48.682;9.030;2023-05-10T00:48:05;13.20;99.90
3954;DHT22;1991;48.682;9.030;2023-05-10T00:50:32;13.20;99.90
3954;DHT22;1991;48.682;9.030;2023-05-10T00:52:59;13.10;99.90
3954;DHT22;1991;48.682;9.030;2023-05-10T00:55:25;13.20;99.90
3954;DHT22;1991;48.682;9.030;2023-05-10T00:57:52;13.10;99.90
3954;DHT22;1991;48.682;9.030;2023-05-10T01:00:18;13.20;99.90
3954;DHT22;1991;48.682;9.030;2023-05-10T01:02:45;13.10;99.90
3954;DHT22;1991;48.682;9.030;2023-05-10T01:05:11;13.10;99.90
3954;DHT22;1991;48.682;9.030;2023-05-10T01:07:37;13.00;99.90
3954;DHT22;1991;48.682;9.030;2023-05-10T01:10:05;13.10;99.90
3954;DHT22;1991;48.682;9.030;2023-05-10T01:12:31;13.00;99.90
3954;DHT22;1991;48.682;9.030;2023-05-10T01:14:57;13.00;99.90
3954;DHT22;1991;48.682;9.030;2023-05-10T01:17:24;13.10;99.90
3954;DHT22;1991;48.682;9.030;2023-05-10T01:19:50;13.00;99.90
3954;DHT22;1991;48.682;9.030;2023-05-10T01:28:17;13.10;99.90
3954;DHT22;1991;48.682;9.030;2023-05-10T01:34:07;13.10;99.90
3954;DHT22;1991;48.682;9.030;2023-05-10T01:36:55;13.00;99.90
3954;DHT22;1991;48.682;9.030;2023-05-10T01:39:30;13.00;99.90
3954;DHT22;1991;48.682;9.030;2023-05-10T01:42:08;12.90;99.90
3954;DHT22;1991;48.682;9.030;2023-05-10T01:49:54;12.90;99.90
3954;DHT22;1991;48.682;9.030;2023-05-10T01:52:25;12.90;99.90
3954;DHT22;1991;48.682;9.030;2023-05-10T01:54:55;12.80;99.90
3954;DHT22;1991;48.682;9.030;2023-05-10T01:57:26;12.80;99.90
3954;DHT22;1991;48.682;9.030;2023-05-10T01:59:53;12.80;99.90
3954;DHT22;1991;48.682;9.030;2023-05-10T02:02:20;12.80;99.90
3954;DHT22;1991;48.682;9.030;2023-05-10T02:04:47;12.80;99.90
3954;DHT22;1991;48.682;9.030;2023-05-10T02:07:15;12.80;99.90
3954;DHT22;1991;48.682;9.030;2023-05-10T02:09:44;12.80;99.90
3954;DHT22;1991;48.682;9.030;2023-05-10T02:12:14;12.80;99.90
3954;DHT22;1991;48.682;9.030;2023-05-10T02:14:41;12.70;99.90
3954;DHT22;1991;48.682;9.030;2023-05-10T02:17:08;12.70;99.90
3954;DHT22;1991;48.682;9.030;2023-05-10T02:19:37;12.70;99.90
3954;DHT22;1991;48.682;9.030;2023-05-10T02:22:04;12.70;99.90
3954;DHT22;1991;48.682;9.030;2023-05-10T02:24:32;12.70;99.90
3954;DHT22;1991;48.682;9.030;2023-05-10T02:26:59;12.70;99.90
3954;DHT22;1991;48.682;9.030;2023-05-10T02:29:26;12.70;99.90
3954;DHT22;1991;48.682;9.030;2023-05-10T02:31:53;12.70;99.90
3954;DHT22;1991;48.682;9.030;2023-05-10T02:34:21;12.70;99.90
3954;DHT22;1991;48.682;9.030;2023-05-10T02:36:48;12.70;99.90
3954;DHT22;1991;48.682;9.030;2023-05-10T02:39:14;12.70;99.90
3954;DHT22;1991;48.682;9.030;2023-05-10T02:41:41;12.60;99.90
3954;DHT22;1991;48.682;9.030;2023-05-10T02:44:08;12.60;99.90
3954;DHT22;1991;48.682;9.030;2023-05-10T02:46:35;12.60;99.90
3954;DHT22;1991;48.682;9.030;2023-05-10T02:49:02;12.60;99.90
3954;DHT22;1991;48.682;9.030;2023-05-10T02:51:31;12.60;99.90
3954;DHT22;1991;48.682;9.030;2023-05-10T02:54:12;12.60;99.90
3954;DHT22;1991;48.682;9.030;2023-05-10T02:56:44;12.60;99.90
3954;DHT22;1991;48.682;9.030;2023-05-10T02:59:12;12.60;99.90
3954;DHT22;1991;48.682;9.030;2023-05-10T03:01:38;12.60;99.90
3954;DHT22;1991;48.682;9.030;2023-05-10T03:04:04;12.60;99.90
3954;DHT22;1991;48.682;9.030;2023-05-10T03:06:29;12.60;99.90
3954;DHT22;1991;48.682;9.030;2023-05-10T03:08:55;12.60;99.90
3954;DHT22;1991;48.682;9.030;2023-05-10T03:11:47;12.60;99.90
3954;DHT22;1991;48.682;9.030;2023-05-10T03:17:15;12.60;99.90
3954;DHT22;1991;48.682;9.030;2023-05-10T03:20:08;12.70;99.90
3954;DHT22;1991;48.682;9.030;2023-05-10T03:22:38;12.60;99.90
3954;DHT22;1991;48.682;9.030;2023-05-10T03:25:07;12.60;99.90
3954;DHT22;1991;48.682;9.030;2023-05-10T03:27:36;12.60;99.90
3954;DHT22;1991;48.682;9.030;2023-05-10T03:30:03;12.60;99.90
3954;DHT22;1991;48.682;9.030;2023-05-10T03:32:29;12.60;99.90
3954;DHT22;1991;48.682;9.030;2023-05-10T03:34:57;12.60;99.90
3954;DHT22;1991;48.682;9.030;2023-05-10T03:37:22;12.60;99.90
3954;DHT22;1991;48.682;9.030;2023-05-10T03:39:48;12.60;99.90
3954;DHT22;1991;48.682;9.030;2023-05-10T03:42:14;12.60;99.90
3954;DHT22;1991;48.682;9.030;2023-05-10T03:44:40;12.50;99.90
3954;DHT22;1991;48.682;9.030;2023-05-10T03:47:05;12.50;99.90
3954;DHT22;1991;48.682;9.030;2023-05-10T03:49:31;12.50;99.90
3954;DHT22;1991;48.682;9.030;2023-05-10T03:51:57;12.60;99.90
3954;DHT22;1991;48.682;9.030;2023-05-10T03:54:23;12.60;99.90
3954;DHT22;1991;48.682;9.030;2023-05-10T03:56:48;12.50;99.90
3954;DHT22;1991;48.682;9.030;2023-05-10T03:59:14;12.50;99.90
3954;DHT22;1991;48.682;9.030;2023-05-10T04:01:40;12.40;99.90
3954;DHT22;1991;48.682;9.030;2023-05-10T04:04:06;12.40;99.90
3954;DHT22;1991;48.682;9.030;2023-05-10T04:06:31;12.30;99.90
3954;DHT22;1991;48.682;9.030;2023-05-10T04:08:57;12.30;99.90
3954;DHT22;1991;48.682;9.030;2023-05-10T04:11:25;12.30;99.90
3954;DHT22;1991;48.682;9.030;2023-05-10T04:13:51;12.30;99.90
3954;DHT22;1991;48.682;9.030;2023-05-10T04:16:16;12.40;99.90
3954;DHT22;1991;48.682;9.030;2023-05-10T04:18:42;12.30;99.90
3954;DHT22;1991;48.682;9.030;2023-05-10T04:21:11;12.30;99.90
3954;DHT22;1991;48.682;9.030;2023-05-10T04:23:38;12.30;99.90
3954;DHT22;1991;48.682;9.030;2023-05-10T04:26:03;12.30;99.90
3954;DHT22;1991;48.682;9.030;2023-05-10T04:28:29;12.40;99.90
3954;DHT22;1991;48.682;9.030;2023-05-10T04:31:02;12.40;99.90
3954;DHT22;1991;48.682;9.030;2023-05-10T04:33:28;12.40;99.90
3954;DHT22;1991;48.682;9.030;2023-05-10T04:35:54;12.40;99.90
3954;DHT22;1991;48.682;9.030;2023-05-10T04:38:19;12.40;99.90
3954;DHT22;1991;48.682;9.030;2023-05-10T04:40:45;12.40;99.90
3954;DHT22;1991;48.682;9.030;2023-05-10T04:43:11;12.40;99.90
3954;DHT22;1991;48.682;9.030;2023-05-10T04:45:36;12.40;99.90
3954;DHT22;1991;48.682;9.030;2023-05-10T04:48:02;12.40;99.90
3954;DHT22;1991;48.682;9.030;2023-05-10T04:50:27;12.50;99.90
3954;DHT22;1991;48.682;9.030;2023-05-10T04:52:53;12.50;99.90
3954;DHT22;1991;48.682;9.030;2023-05-10T04:55:19;12.50;99.90
3954;DHT22;1991;48.682;9.030;2023-05-10T04:57:44;12.50;99.90
3954;DHT22;1991;48.682;9.030;2023-05-10T05:00:10;12.60;99.90
3954;DHT22;1991;48.682;9.030;2023-05-10T05:02:36;12.60;99.90
3954;DHT22;1991;48.682;9.030;2023-05-10T05:05:02;12.60;99.90
3954;DHT22;1991;48.682;9.030;2023-05-10T05:07:28;12.70;99.90
3954;DHT22;1991;48.682;9.030;2023-05-10T05:09:53;12.70;99.90
3954;DHT22;1991;48.682;9.030;2023-05-10T05:12:19;12.70;99.90
3954;DHT22;1991;48.682;9.030;2023-05-10T05:14:44;12.80;99.90
3954;DHT22;1991;48.682;9.030;2023-05-10T05:17:10;12.80;99.90
3954;DHT22;1991;48.682;9.030;2023-05-10T05:19:35;12.80;99.90
3954;DHT22;1991;48.682;9.030;2023-05-10T05:22:02;12.80;99.90
3954;DHT22;1991;48.682;9.030;2023-05-10T05:24:27;12.80;99.90
3954;DHT22;1991;48.682;9.030;2023-05-10T05:26:53;12.80;99.90
3954;DHT22;1991;48.682;9.030;2023-05-10T05:29:19;12.90;99.90
3954;DHT22;1991;48.682;9.030;2023-05-10T05:31:44;12.90;99.90
3954;DHT22;1991;48.682;9.030;2023-05-10T05:34:10;12.90;99.90
3954;DHT22;1991;48.682;9.030;2023-05-10T05:36:36;12.90;99.90
3954;DHT22;1991;48.682;9.030;2023-05-10T05:39:03;12.90;99.90
3954;DHT22;1991;48.682;9.030;2023-05-10T05:41:29;12.90;99.90
3954;DHT22;1991;48.682;9.030;2023-05-10T05:43:54;13.00;99.90
3954;DHT22;1991;48.682;9.030;2023-05-10T05:46:20;13.00;99.90
3954;DHT22;1991;48.682;9.030;2023-05-10T05:48:46;13.00;99.90
3954;DHT22;1991;48.682;9.030;2023-05-10T05:51:11;13.10;99.90
3954;DHT22;1991;48.682;9.030;2023-05-10T05:53:37;13.10;99.90
3954;DHT22;1991;48.682;9.030;2023-05-10T05:56:02;13.10;99.90
3954;DHT22;1991;48.682;9.030;2023-05-10T05:58:28;13.20;99.90
3954;DHT22;1991;48.682;9.030;2023-05-10T06:00:54;13.30;99.90
3954;DHT22;1991;48.682;9.030;2023-05-10T06:03:20;13.30;99.90
3954;DHT22;1991;48.682;9.030;2023-05-10T06:05:46;13.30;99.90
3954;DHT22;1991;48.682;9.030;2023-05-10T06:08:12;13.40;99.90
3954;DHT22;1991;48.682;9.030;2023-05-10T06:10:37;13.40;99.90
3954;DHT22;1991;48.682;9.030;2023-05-10T06:13:03;13.40;99.90
3954;DHT22;1991;48.682;9.030;2023-05-10T06:15:29;13.40;99.90
3954;DHT22;1991;48.682;9.030;2023-05-10T06:17:54;13.40;99.90
3954;DHT22;1991;48.682;9.030;2023-05-10T06:20:20;13.40;99.90
3954;DHT22;1991;48.682;9.030;2023-05-10T06:22:45;13.40;99.90
3954;DHT22;1991;48.682;9.030;2023-05-10T06:25:11;13.40;99.90
3954;DHT22;1991;48.682;9.030;2023-05-10T06:27:37;13.50;99.90
3954;DHT22;1991;48.682;9.030;2023-05-10T06:30:03;13.50;99.90
3954;DHT22;1991;48.682;9.030;2023-05-10T06:32:30;13.50;99.90
3954;DHT22;1991;48.682;9.030;2023-05-10T06:34:55;13.60;99.90
3954;DHT22;1991;48.682;9.030;2023-05-10T06:37:21;13.60;99.90
3954;DHT22;1991;48.682;9.030;2023-05-10T06:39:46;13.70;99.90
3954;DHT22;1991;48.682;9.030;2023-05-10T06:42:12;13.70;99.90
3954;DHT22;1991;48.682;9.030;2023-05-10T06:44:38;13.70;99.90
3954;DHT22;1991;48.682;9.030;2023-05-10T06:47:03;13.70;99.90
3954;DHT22;1991;48.682;9.030;2023-05-10T06:49:29;13.80;99.90
3954;DHT22;1991;48.682;9.030;2023-05-10T06:51:57;13.80;99.90
3954;DHT22;1991;48.682;9.030;2023-05-10T06:54:23;13.90;99.90
3954;DHT22;1991;48.682;9.030;2023-05-10T06:56:49;13.80;99.90
3954;DHT22;1991;48.682;9.030;2023-05-10T06:59:14;13.90;99.90
3954;DHT22;1991;48.682;9.030;2023-05-10T07:01:42;13.90;99.90
3954;DHT22;1991;48.682;9.030;2023-05-10T07:04:08;13.90;99.90
3954;DHT22;1991;48.682;9.030;2023-05-10T07:06:34;13.90;99.90
3954;DHT22;1991;48.682;9.030;2023-05-10T07:08:59;13.80;99.90
3954;DHT22;1991;48.682;9.030;2023-05-10T07:11:26;13.80;99.90
3954;DHT22;1991;48.682;9.030;2023-05-10T07:13:52;13.90;99.90
3954;DHT22;1991;48.682;9.030;2023-05-10T07:16:18;13.90;99.90
3954;DHT22;1991;48.682;9.030;2023-05-10T07:18:43;14.00;99.90
3954;DHT22;1991;48.682;9.030;2023-05-10T07:21:09;14.00;99.90
3954;DHT22;1991;48.682;9.030;2023-05-10T07:23:34;14.10;99.90
3954;DHT22;1991;48.682;9.030;2023-05-10T07:26:00;14.10;99.90
3954;DHT22;1991;48.682;9.030;2023-05-10T07:28:27;14.10;99.90
3954;DHT22;1991;48.682;9.030;2023-05-10T07:30:53;14.10;99.90
3954;DHT22;1991;48.682;9.030;2023-05-10T07:33:18;14.10;99.90
3954;DHT22;1991;48.682;9.030;2023-05-10T07:35:44;14.20;99.90
3954;DHT22;1991;48.682;9.030;2023-05-10T07:38:10;14.30;99.90
3954;DHT22;1991;48.682;9.030;2023-05-10T07:40:39;14.30;99.90
3954;DHT22;1991;48.682;9.030;2023-05-10T07:43:05;14.30;99.90
3954;DHT22;1991;48.682;9.030;2023-05-10T07:45:31;14.30;99.90
3954;DHT22;1991;48.682;9.030;2023-05-10T07:47:56;14.20;99.90
3954;DHT22;1991;48.682;9.030;2023-05-10T07:50:22;14.30;99.90
3954;DHT22;1991;48.682;9.030;2023-05-10T07:52:48;14.40;99.90
3954;DHT22;1991;48.682;9.030;2023-05-10T07:55:13;14.60;99.90
3954;DHT22;1991;48.682;9.030;2023-05-10T07:57:39;14.70;99.90
3954;DHT22;1991;48.682;9.030;2023-05-10T08:00:06;14.60;99.90
3954;DHT22;1991;48.682;9.030;2023-05-10T08:02:34;14.30;99.90
3954;DHT22;1991;48.682;9.030;2023-05-10T08:05:00;14.40;99.90
3954;DHT22;1991;48.682;9.030;2023-05-10T08:07:26;14.60;99.90
3954;DHT22;1991;48.682;9.030;2023-05-10T08:09:51;14.70;99.90
3954;DHT22;1991;48.682;9.030;2023-05-10T08:12:17;14.70;99.90
3954;DHT22;1991;48.682;9.030;2023-05-10T08:14:42;14.90;99.90
3954;DHT22;1991;48.682;9.030;2023-05-10T08:17:08;15.00;99.90
3954;DHT22;1991;48.682;9.030;2023-05-10T08:19:34;15.20;99.90
3954;DHT22;1991;48.682;9.030;2023-05-10T08:22:00;15.20;99.90
3954;DHT22;1991;48.682;9.030;2023-05-10T08:24:25;15.30;99.90
3954;DHT22;1991;48.682;9.030;2023-05-10T08:26:51;15.50;99.90
3954;DHT22;1991;48.682;9.030;2023-05-10T08:29:17;15.40;99.90
3954;DHT22;1991;48.682;9.030;2023-05-10T08:31:42;15.50;99.90
3954;DHT22;1991;48.682;9.030;2023-05-10T08:34:08;15.70;99.90
3954;DHT22;1991;48.682;9.030;2023-05-10T08:36:33;15.50;99.90
3954;DHT22;1991;48.682;9.030;2023-05-10T08:38:59;15.40;99.90
3954;DHT22;1991;48.682;9.030;2023-05-10T08:41:25;15.30;99.90
3954;DHT22;1991;48.682;9.030;2023-05-10T08:43:52;15.30;99.90
3954;DHT22;1991;48.682;9.030;2023-05-10T08:46:20;15.40;99.90
3954;DHT22;1991;48.682;9.030;2023-05-10T08:48:47;15.50;99.90
3954;DHT22;1991;48.682;9.030;2023-05-10T08:51:24;15.70;99.90
3954;DHT22;1991;48.682;9.030;2023-05-10T08:53:53;15.70;99.90
3954;DHT22;1991;48.682;9.030;2023-05-10T08:56:19;15.70;99.90
3954;DHT22;1991;48.682;9.030;2023-05-10T08:58:45;15.60;99.90
3954;DHT22;1991;48.682;9.030;2023-05-10T09:01:12;15.60;99.90
3954;DHT22;1991;48.682;9.030;2023-05-10T09:03:39;15.70;99.90
3954;DHT22;1991;48.682;9.030;2023-05-10T09:06:05;15.80;99.90
3954;DHT22;1991;48.682;9.030;2023-05-10T09:08:32;15.70;99.90
3954;DHT22;1991;48.682;9.030;2023-05-10T09:11:00;15.70;99.90
3954;DHT22;1991;48.682;9.030;2023-05-10T09:13:27;15.70;99.90
3954;DHT22;1991;48.682;9.030;2023-05-10T09:15:53;15.70;99.90
3954;DHT22;1991;48.682;9.030;2023-05-10T09:18:19;15.80;99.90
3954;DHT22;1991;48.682;9.030;2023-05-10T09:20:45;15.80;99.90
3954;DHT22;1991;48.682;9.030;2023-05-10T09:23:10;15.80;99.90
3954;DHT22;1991;48.682;9.030;2023-05-10T09:25:36;15.70;99.00
3954;DHT22;1991;48.682;9.030;2023-05-10T09:28:06;15.60;99.90
3954;DHT22;1991;48.682;9.030;2023-05-10T09:30:33;15.60;99.90
3954;DHT22;1991;48.682;9.030;2023-05-10T09:32:59;15.70;99.90
3954;DHT22;1991;48.682;9.030;2023-05-10T09:35:27;15.80;99.90
3954;DHT22;1991;48.682;9.030;2023-05-10T09:37:54;16.00;99.90
3954;DHT22;1991;48.682;9.030;2023-05-10T09:40:21;16.20;97.50
3954;DHT22;1991;48.682;9.030;2023-05-10T09:43:01;16.50;98.30
3954;DHT22;1991;48.682;9.030;2023-05-10T09:45:29;16.90;97.70
3954;DHT22;1991;48.682;9.030;2023-05-10T09:47:55;17.10;94.00
3954;DHT22;1991;48.682;9.030;2023-05-10T09:50:22;17.20;92.20
3954;DHT22;1991;48.682;9.030;2023-05-10T09:52:53;17.20;92.30
3954;DHT22;1991;48.682;9.030;2023-05-10T09:55:23;17.20;92.10
3954;DHT22;1991;48.682;9.030;2023-05-10T09:57:58;17.30;89.90
3954;DHT22;1991;48.682;9.030;2023-05-10T10:00:24;17.60;90.20
3954;DHT22;1991;48.682;9.030;2023-05-10T10:02:57;17.80;90.80
3954;DHT22;1991;48.682;9.030;2023-05-10T10:05:34;17.90;89.50
3954;DHT22;1991;48.682;9.030;2023-05-10T10:08:02;18.20;90.90
3954;DHT22;1991;48.682;9.030;2023-05-10T10:10:28;18.40;84.00
3954;DHT22;1991;48.682;9.030;2023-05-10T10:12:54;18.50;86.50
3954;DHT22;1991;48.682;9.030;2023-05-10T10:15:21;18.80;85.50
3954;DHT22;1991;48.682;9.030;2023-05-10T10:17:48;19.10;84.30
3954;DHT22;1991;48.682;9.030;2023-05-10T10:20:15;19.40;82.50
3954;DHT22;1991;48.682;9.030;2023-05-10T10:22:41;19.40;78.10
3954;DHT22;1991;48.682;9.030;2023-05-10T10:25:08;18.90;74.80
3954;DHT22;1991;48.682;9.030;2023-05-10T10:30:41;19.30;77.60
3954;DHT22;1991;48.682;9.030;2023-05-10T10:36:00;19.00;78.60
3954;DHT22;1991;48.682;9.030;2023-05-10T10:38:54;19.10;78.40
3954;DHT22;1991;48.682;9.030;2023-05-10T10:41:39;18.80;75.00
3954;DHT22;1991;48.682;9.030;2023-05-10T10:52:40;16.80;80.60
3954;DHT22;1991;48.682;9.030;2023-05-10T10:55:32;16.10;77.70
3954;DHT22;1991;48.682;9.030;2023-05-10T10:57:57;15.70;79.30
3954;DHT22;1991;48.682;9.030;2023-05-10T11:00:32;15.30;81.10
3954;DHT22;1991;48.682;9.030;2023-05-10T11:03:12;14.90;84.00
3954;DHT22;1991;48.682;9.030;2023-05-10T11:05:48;14.90;87.00
3954;DHT22;1991;48.682;9.030;2023-05-10T11:08:17;15.00;88.60
3954;DHT22;1991;48.682;9.030;2023-05-10T11:15:54;15.30;90.90
3954;DHT22;1991;48.682;9.030;2023-05-10T11:18:26;15.10;88.70
3954;DHT22;1991;48.682;9.030;2023-05-10T11:21:00;15.20;90.80
3954;DHT22;1991;48.682;9.030;2023-05-10T11:23:32;15.30;91.90
3954;DHT22;1991;48.682;9.030;2023-05-10T11:26:00;15.50;92.80
3954;DHT22;1991;48.682;9.030;2023-05-10T11:28:30;15.40;87.50
3954;DHT22;1991;48.682;9.030;2023-05-10T11:30:56;15.40;91.40
3954;DHT22;1991;48.682;9.030;2023-05-10T11:33:22;15.50;91.80
3954;DHT22;1991;48.682;9.030;2023-05-10T11:35:47;15.60;90.40
3954;DHT22;1991;48.682;9.030;2023-05-10T11:38:14;15.80;90.80
3954;DHT22;1991;48.682;9.030;2023-05-10T11:40:40;16.10;89.70
3954;DHT22;1991;48.682;9.030;2023-05-10T11:43:08;16.30;87.90
3954;DHT22;1991;48.682;9.030;2023-05-10T11:45:34;16.70;88.40
3954;DHT22;1991;48.682;9.030;2023-05-10T11:48:01;16.90;83.70
3954;DHT22;1991;48.682;9.030;2023-05-10T11:50:28;17.20;86.90
3954;DHT22;1991;48.682;9.030;2023-05-10T11:52:54;17.50;85.40
3954;DHT22;1991;48.682;9.030;2023-05-10T11:55:21;17.50;84.80
3954;DHT22;1991;48.682;9.030;2023-05-10T11:57:46;17.60;81.40
3954;DHT22;1991;48.682;9.030;2023-05-10T12:00:15;17.90;82.00
3954;DHT22;1991;48.682;9.030;2023-05-10T12:02:41;18.10;82.70
3954;DHT22;1991;48.682;9.030;2023-05-10T12:05:07;18.30;76.80
3954;DHT22;1991;48.682;9.030;2023-05-10T12:07:33;18.20;76.50
3954;DHT22;1991;48.682;9.030;2023-05-10T12:10:12;17.90;77.20
3954;DHT22;1991;48.682;9.030;2023-05-10T12:12:45;17.80;78.10
3954;DHT22;1991;48.682;9.030;2023-05-10T12:15:23;17.70;80.30
3954;DHT22;1991;48.682;9.030;2023-05-10T12:17:50;17.60;79.60
3954;DHT22;1991;48.682;9.030;2023-05-10T12:20:24;17.30;77.30
3954;DHT22;1991;48.682;9.030;2023-05-10T12:22:57;16.90;77.70
3954;DHT22;1991;48.682;9.030;2023-05-10T12:25:30;16.80;78.90
3954;DHT22;1991;48.682;9.030;2023-05-10T12:27:57;16.50;77.60
3954;DHT22;1991;48.682;9.030;2023-05-10T12:30:28;16.40;76.60
3954;DHT22;1991;48.682;9.030;2023-05-10T12:33:17;16.30;78.30
3954;DHT22;1991;48.682;9.030;2023-05-10T12:35:51;16.40;79.30
3954;DHT22;1991;48.682;9.030;2023-05-10T12:38:32;16.40;79.00
3954;DHT22;1991;48.682;9.030;2023-05-10T12:41:00;16.30;77.90
3954;DHT22;1991;48.682;9.030;2023-05-10T12:43:26;16.30;77.60
3954;DHT22;1991;48.682;9.030;2023-05-10T12:45:52;16.30;76.60
3954;DHT22;1991;48.682;9.030;2023-05-10T12:48:18;16.30;76.80
3954;DHT22;1991;48.682;9.030;2023-05-10T12:50:43;16.60;80.60
3954;DHT22;1991;48.682;9.030;2023-05-10T12:53:09;16.70;76.50
3954;DHT22;1991;48.682;9.030;2023-05-10T12:55:35;16.70;74.90
3954;DHT22;1991;48.682;9.030;2023-05-10T12:58:00;16.70;76.00
3954;DHT22;1991;48.682;9.030;2023-05-10T13:00:26;16.80;75.80
3954;DHT22;1991;48.682;9.030;2023-05-10T13:02:52;16.70;73.30
3954;DHT22;1991;48.682;9.030;2023-05-10T13:05:18;16.60;75.00
3954;DHT22;1991;48.682;9.030;2023-05-10T13:07:43;16.60;76.80
3954;DHT22;1991;48.682;9.030;2023-05-10T13:10:10;16.80;74.90
3954;DHT22;1991;48.682;9.030;2023-05-10T13:12:36;16.90;73.20
3954;DHT22;1991;48.682;9.030;2023-05-10T13:15:02;16.80;71.10
3954;DHT22;1991;48.682;9.030;2023-05-10T13:17:28;16.80;72.80
3954;DHT22;1991;48.682;9.030;2023-05-10T13:19:54;16.70;70.10
3954;DHT22;1991;48.682;9.030;2023-05-10T13:22:20;16.60;68.20
3954;DHT22;1991;48.682;9.030;2023-05-10T13:24:45;16.60;70.00
3954;DHT22;1991;48.682;9.030;2023-05-10T13:27:11;16.70;72.70
3954;DHT22;1991;48.682;9.030;2023-05-10T13:29:37;16.80;70.40
3954;DHT22;1991;48.682;9.030;2023-05-10T13:32:03;16.70;69.80
3954;DHT22;1991;48.682;9.030;2023-05-10T13:34:28;16.70;70.90
3954;DHT22;1991;48.682;9.030;2023-05-10T13:36:54;16.60;71.10
3954;DHT22;1991;48.682;9.030;2023-05-10T13:39:21;16.60;72.20
3954;DHT22;1991;48.682;9.030;2023-05-10T13:41:47;16.80;73.60
3954;DHT22;1991;48.682;9.030;2023-05-10T13:44:14;17.00;73.10
3954;DHT22;1991;48.682;9.030;2023-05-10T13:46:40;17.20;72.00
3954;DHT22;1991;48.682;9.030;2023-05-10T13:49:08;17.40;72.40
3954;DHT22;1991;48.682;9.030;2023-05-10T13:51:34;17.30;71.00
3954;DHT22;1991;48.682;9.030;2023-05-10T13:54:00;17.20;70.60
3954;DHT22;1991;48.682;9.030;2023-05-10T13:56:26;17.30;72.90
3954;DHT22;1991;48.682;9.030;2023-05-10T13:58:52;17.10;70.50
3954;DHT22;1991;48.682;9.030;2023-05-10T14:01:17;16.90;70.20
3954;DHT22;1991;48.682;9.030;2023-05-10T14:03:43;16.90;72.80
3954;DHT22;1991;48.682;9.030;2023-05-10T14:06:09;16.90;74.00
3954;DHT22;1991;48.682;9.030;2023-05-10T14:08:35;16.90;72.70
3954;DHT22;1991;48.682;9.030;2023-05-10T14:11:01;16.90;70.50
3954;DHT22;1991;48.682;9.030;2023-05-10T14:13:26;16.80;69.80
3954;DHT22;1991;48.682;9.030;2023-05-10T14:15:53;16.80;71.20
3954;DHT22;1991;48.682;9.030;2023-05-10T14:18:19;16.90;71.50
3954;DHT22;1991;48.682;9.030;2023-05-10T14:20:45;17.10;71.50
3954;DHT22;1991;48.682;9.030;2023-05-10T14:23:11;17.00;71.20
3954;DHT22;1991;48.682;9.030;2023-05-10T14:25:37;17.10;71.10
3954;DHT22;1991;48.682;9.030;2023-05-10T14:28:03;17.00;69.70
3954;DHT22;1991;48.682;9.030;2023-05-10T14:30:29;17.10;72.10
3954;DHT22;1991;48.682;9.030;2023-05-10T14:32:55;17.20;71.70
3954;DHT22;1991;48.682;9.030;2023-05-10T14:35:20;17.20;70.20
3954;DHT22;1991;48.682;9.030;2023-05-10T14:37:46;17.20;70.80
3954;DHT22;1991;48.682;9.030;2023-05-10T14:40:12;17.20;70.70
3954;DHT22;1991;48.682;9.030;2023-05-10T14:42:38;17.20;71.40
3954;DHT22;1991;48.682;9.030;2023-05-10T14:45:04;17.20;73.00
3954;DHT22;1991;48.682;9.030;2023-05-10T14:47:30;17.10;71.30
3954;DHT22;1991;48.682;9.030;2023-05-10T14:49:55;17.10;72.50
3954;DHT22;1991;48.682;9.030;2023-05-10T14:52:21;17.10;69.30
3954;DHT22;1991;48.682;9.030;2023-05-10T14:54:46;17.00;68.40
3954;DHT22;1991;48.682;9.030;2023-05-10T14:57:12;17.00;70.10
3954;DHT22;1991;48.682;9.030;2023-05-10T14:59:38;17.00;69.90
3954;DHT22;1991;48.682;9.030;2023-05-10T15:02:04;16.90;68.20
3954;DHT22;1991;48.682;9.030;2023-05-10T15:04:30;16.80;67.90
3954;DHT22;1991;48.682;9.030;2023-05-10T15:06:56;16.70;67.70
3954;DHT22;1991;48.682;9.030;2023-05-10T15:09:25;16.70;69.90
3954;DHT22;1991;48.682;9.030;2023-05-10T15:11:53;16.60;71.20
3954;DHT22;1991;48.682;9.030;2023-05-10T15:14:18;16.70;74.50
3954;DHT22;1991;48.682;9.030;2023-05-10T15:16:44;16.80;70.80
3954;DHT22;1991;48.682;9.030;2023-05-10T15:19:09;16.70;69.60
3954;DHT22;1991;48.682;9.030;2023-05-10T15:21:35;16.60;70.40
3954;DHT22;1991;48.682;9.030;2023-05-10T15:24:05;16.70;70.70
3954;DHT22;1991;48.682;9.030;2023-05-10T15:26:31;16.80;71.90
3954;DHT22;1991;48.682;9.030;2023-05-10T15:28:57;16.80;71.10
3954;DHT22;1991;48.682;9.030;2023-05-10T15:31:22;16.80;71.50
3954;DHT22;1991;48.682;9.030;2023-05-10T15:33:48;16.90;72.80
3954;DHT22;1991;48.682;9.030;2023-05-10T15:36:13;17.00;71.50
3954;DHT22;1991;48.682;9.030;2023-05-10T15:38:39;17.10;71.30
3954;DHT22;1991;48.682;9.030;2023-05-10T15:41:05;17.00;68.30
3954;DHT22;1991;48.682;9.030;2023-05-10T15:43:30;17.00;69.50
3954;DHT22;1991;48.682;9.030;2023-05-10T15:45:56;16.90;66.80
3954;DHT22;1991;48.682;9.030;2023-05-10T15:48:22;17.00;68.20
3954;DHT22;1991;48.682;9.030;2023-05-10T15:50:48;16.90;68.90
3954;DHT22;1991;48.682;9.030;2023-05-10T15:53:13;16.90;69.10
3954;DHT22;1991;48.682;9.030;2023-05-10T15:55:39;16.90;68.60
3954;DHT22;1991;48.682;9.030;2023-05-10T15:58:04;16.70;67.90
3954;DHT22;1991;48.682;9.030;2023-05-10T16:00:30;16.60;68.10
3954;DHT22;1991;48.682;9.030;2023-05-10T16:02:57;16.50;69.10
3954;DHT22;1991;48.682;9.030;2023-05-10T16:05:22;16.60;69.00
3954;DHT22;1991;48.682;9.030;2023-05-10T16:07:48;16.60;69.70
3954;DHT22;1991;48.682;9.030;2023-05-10T16:10:14;16.50;68.70
3954;DHT22;1991;48.682;9.030;2023-05-10T16:12:40;16.60;70.00
3954;DHT22;1991;48.682;9.030;2023-05-10T16:15:06;16.60;69.70
3954;DHT22;1991;48.682;9.030;2023-05-10T16:17:31;16.50;68.30
3954;DHT22;1991;48.682;9.030;2023-05-10T16:19:57;16.40;69.60
3954;DHT22;1991;48.682;9.030;2023-05-10T16:22:24;16.30;69.40
3954;DHT22;1991;48.682;9.030;2023-05-10T16:24:51;16.30;72.60
3954;DHT22;1991;48.682;9.030;2023-05-10T16:27:18;16.30;70.30
3954;DHT22;1991;48.682;9.030;2023-05-10T16:29:44;16.30;70.80
3954;DHT22;1991;48.682;9.030;2023-05-10T16:32:11;16.20;70.20
3954;DHT22;1991;48.682;9.030;2023-05-10T16:34:36;16.10;72.20
3954;DHT22;1991;48.682;9.030;2023-05-10T16:37:02;16.00;72.50
3954;DHT22;1991;48.682;9.030;2023-05-10T16:39:27;15.90;73.20